createdAt,value
2023-04-28T00:02:09.778Z,20.50
2023-04-28T00:04:36.545Z,23.27
2023-04-28T00:07:03.778Z,23.27
2023-04-28T00:09:30.558Z,23.80
2023-04-28T00:11:57.354Z,23.57
2023-04-28T00:14:24.150Z,23.13
2023-04-28T00:16:52.080Z,21.37
2023-04-28T00:19:18.835Z,24.83
2023-04-28T00:21:45.766Z,23.37
2023-04-28T00:24:12.518Z,26.37
2023-04-28T00:26:39.327Z,25.63
2023-04-28T00:29:06.084Z,23.30
2023-04-28T00:31:32.922Z,24.63
2023-04-28T00:34:00.067Z,25.00
2023-04-28T00:36:26.847Z,25.73
2023-04-28T00:38:53.713Z,27.10
2023-04-28T00:41:21.067Z,24.50
2023-04-28T00:43:49.064Z,27.30
2023-04-28T00:46:28.381Z,26.37
2023-04-28T00:48:55.569Z,27.13
2023-04-28T00:51:22.427Z,26.57
2023-04-28T00:53:50.253Z,27.37
2023-04-28T00:56:17.275Z,27.43
2023-04-28T00:58:44.017Z,25.90
2023-04-28T01:01:11.275Z,26.97
2023-04-28T01:03:39.921Z,24.83
2023-04-28T01:06:08.685Z,26.87
2023-04-28T01:08:37.068Z,27.50
2023-04-28T01:11:03.779Z,29.77
2023-04-28T01:13:30.547Z,27.40
2023-04-28T01:15:57.341Z,27.10
2023-04-28T01:18:24.610Z,34.10
2023-04-28T01:20:51.618Z,30.40
2023-04-28T01:23:18.656Z,30.87
2023-04-28T01:25:45.576Z,32.87
2023-04-28T01:28:12.277Z,32.77
2023-04-28T01:30:38.982Z,34.73
2023-04-28T01:33:05.746Z,34.53
2023-04-28T01:35:32.453Z,34.00
2023-04-28T01:37:59.378Z,35.80
2023-04-28T01:40:26.062Z,33.83
2023-04-28T01:42:52.698Z,37.67
2023-04-28T01:45:19.368Z,38.53
2023-04-28T01:47:46.113Z,38.70
2023-04-28T01:50:12.781Z,40.13
2023-04-28T01:52:39.385Z,36.00
2023-04-28T01:55:06.908Z,37.63
2023-04-28T01:57:35.540Z,37.33
2023-04-28T02:00:03.377Z,36.60
2023-04-28T02:02:30.271Z,36.73
2023-04-28T02:04:58.173Z,38.93
2023-04-28T02:07:25.471Z,40.53
2023-04-28T02:09:52.199Z,39.40
2023-04-28T02:12:18.981Z,39.07
2023-04-28T02:14:46.127Z,37.60
2023-04-28T02:17:13.017Z,36.87
2023-04-28T02:19:39.745Z,39.43
2023-04-28T02:22:10.675Z,41.47
2023-04-28T02:24:37.790Z,37.87
2023-04-28T02:27:06.090Z,42.37
2023-04-28T02:29:32.814Z,43.37
2023-04-28T02:31:59.567Z,43.00
2023-04-28T02:34:26.480Z,42.83
2023-04-28T02:36:53.168Z,43.47
2023-04-28T02:39:22.064Z,40.27
2023-04-28T02:41:50.091Z,43.17
2023-04-28T02:44:16.859Z,42.50
2023-04-28T02:46:43.793Z,43.73
2023-04-28T02:49:10.640Z,42.90
2023-04-28T02:51:39.102Z,46.20
2023-04-28T02:54:05.915Z,48.27
2023-04-28T02:56:33.465Z,47.30
2023-04-28T02:59:00.119Z,48.30
2023-04-28T03:01:27.100Z,48.70
2023-04-28T03:03:53.931Z,46.17
2023-04-28T03:06:20.657Z,47.27
2023-04-28T03:08:48.230Z,50.57
2023-04-28T03:11:14.982Z,51.10
2023-04-28T03:13:42.026Z,51.37
2023-04-28T03:16:08.785Z,49.60
2023-04-28T03:18:35.700Z,50.93
2023-04-28T03:21:44.190Z,48.43
2023-04-28T03:24:10.818Z,46.60
2023-04-28T03:26:37.496Z,52.20
2023-04-28T03:29:04.182Z,54.23
2023-04-28T03:31:31.248Z,50.73
2023-04-28T03:33:59.611Z,49.53
2023-04-28T03:36:27.506Z,51.47
2023-04-28T03:38:54.268Z,50.13
2023-04-28T03:41:20.894Z,48.70
2023-04-28T03:43:47.562Z,46.27
2023-04-28T03:46:15.453Z,48.37
2023-04-28T03:48:42.117Z,44.50
2023-04-28T03:51:08.768Z,49.87
2023-04-28T03:53:35.403Z,49.40
2023-04-28T03:56:02.080Z,46.37
2023-04-28T03:58:29.107Z,50.67
2023-04-28T04:00:55.818Z,47.77
2023-04-28T04:03:26.376Z,46.43
2023-04-28T04:05:53.941Z,43.97
2023-04-28T04:08:20.766Z,52.17
2023-04-28T04:10:47.446Z,45.83
2023-04-28T04:13:14.072Z,48.07
2023-04-28T04:15:40.748Z,44.90
2023-04-28T04:18:07.496Z,47.40
2023-04-28T04:20:34.090Z,44.17
2023-04-28T04:23:01.993Z,43.13
2023-04-28T04:25:29.204Z,45.80
2023-04-28T04:27:56.036Z,44.17
2023-04-28T04:30:22.712Z,46.80
2023-04-28T04:32:49.573Z,40.20
2023-04-28T04:35:16.439Z,41.80
2023-04-28T04:37:45.360Z,44.43
2023-04-28T04:40:12.355Z,34.27
2023-04-28T04:42:39.231Z,34.87
2023-04-28T04:45:06.907Z,34.20
2023-04-28T04:47:33.637Z,34.50
2023-04-28T04:50:02.623Z,32.73
2023-04-28T04:52:29.383Z,35.73
2023-04-28T04:54:56.579Z,27.40
2023-04-28T04:57:23.359Z,33.07
2023-04-28T04:59:50.148Z,29.33
2023-04-28T05:02:17.496Z,26.90
2023-04-28T05:04:44.351Z,26.10
2023-04-28T05:07:11.080Z,23.60
2023-04-28T05:09:37.763Z,26.87
2023-04-28T05:12:04.630Z,22.93
2023-04-28T05:14:31.598Z,20.57
2023-04-28T05:16:58.388Z,18.10
2023-04-28T05:19:25.345Z,17.40
2023-04-28T05:21:54.535Z,20.93
2023-04-28T05:24:24.215Z,16.33
2023-04-28T05:26:51.870Z,17.07
2023-04-28T05:29:18.617Z,21.23
2023-04-28T05:31:45.528Z,15.37
2023-04-28T05:34:12.292Z,15.87
2023-04-28T05:36:39.279Z,16.20
2023-04-28T05:39:05.892Z,16.33
2023-04-28T05:41:32.594Z,17.77
2023-04-28T05:43:59.279Z,15.10
2023-04-28T05:46:30.767Z,11.33
2023-04-28T05:48:58.194Z,15.13
2023-04-28T05:51:25.016Z,11.50
2023-04-28T05:53:52.094Z,11.83
2023-04-28T05:56:19.291Z,10.43
2023-04-28T05:58:47.241Z,10.63
2023-04-28T06:01:13.988Z,11.13
2023-04-28T06:03:45.206Z,9.47
2023-04-28T06:06:12.957Z,9.63
2023-04-28T06:08:39.900Z,8.37
2023-04-28T06:11:06.878Z,7.28
2023-04-28T06:13:33.530Z,7.18
2023-04-28T06:16:00.455Z,7.28
2023-04-28T06:18:27.410Z,4.97
2023-04-28T06:20:54.051Z,6.43
2023-04-28T06:23:20.665Z,5.15
2023-04-28T06:25:47.740Z,5.40
2023-04-28T06:28:15.106Z,5.22
2023-04-28T06:30:42.025Z,4.82
2023-04-28T06:33:09.085Z,4.80
2023-04-28T06:35:36.556Z,4.22
2023-04-28T06:38:04.625Z,4.13
2023-04-28T06:40:31.759Z,4.13
2023-04-28T06:42:58.397Z,5.05
2023-04-28T06:45:25.210Z,5.85
2023-04-28T06:47:52.511Z,4.85
2023-04-28T06:50:19.381Z,5.10
2023-04-28T06:52:46.012Z,3.80
2023-04-28T06:55:16.634Z,6.65
2023-04-28T06:57:43.885Z,4.82
2023-04-28T07:00:11.481Z,6.07
2023-04-28T07:02:38.556Z,5.03
2023-04-28T07:05:05.692Z,5.07
2023-04-28T07:07:32.513Z,3.80
2023-04-28T07:10:00.468Z,4.63
2023-04-28T07:12:27.598Z,5.43
2023-04-28T07:14:55.700Z,3.58
2023-04-28T07:17:22.328Z,5.63
2023-04-28T07:19:50.894Z,3.88
2023-04-28T07:22:17.740Z,5.47
2023-04-28T07:24:44.779Z,5.30
2023-04-28T07:27:11.470Z,3.88
2023-04-28T07:29:38.302Z,5.22
2023-04-28T07:32:07.505Z,3.97
2023-04-28T07:34:35.835Z,7.03
2023-04-28T07:37:03.594Z,4.68
2023-04-28T07:39:32.259Z,4.13
2023-04-28T07:41:59.829Z,4.10
2023-04-28T07:44:26.590Z,3.63
2023-04-28T07:46:53.930Z,4.82
2023-04-28T07:49:20.852Z,4.30
2023-04-28T07:51:47.642Z,4.15
2023-04-28T07:54:15.501Z,5.45
2023-04-28T07:56:42.385Z,5.55
2023-04-28T07:59:09.535Z,4.25
2023-04-28T08:01:36.190Z,3.90
2023-04-28T08:04:03.098Z,3.88
2023-04-28T08:06:30.303Z,4.78
2023-04-28T08:08:56.978Z,6.07
2023-04-28T08:11:23.771Z,4.38
2023-04-28T08:13:50.676Z,4.15
2023-04-28T08:16:17.506Z,6.35
2023-04-28T08:18:44.309Z,5.15
2023-04-28T08:21:11.605Z,4.90
2023-04-28T08:23:38.580Z,5.93
2023-04-28T08:26:06.014Z,6.57
2023-04-28T08:28:34.072Z,6.40
2023-04-28T08:31:01.149Z,5.28
2023-04-28T08:33:27.967Z,4.85
2023-04-28T08:35:55.867Z,6.68
2023-04-28T08:38:24.172Z,7.22
2023-04-28T08:40:51.921Z,4.57
2023-04-28T08:43:20.879Z,5.35
2023-04-28T08:45:47.614Z,5.03
2023-04-28T08:48:22.278Z,8.93
2023-04-28T08:50:54.815Z,5.60
2023-04-28T08:53:26.636Z,6.80
2023-04-28T08:55:58.059Z,6.70
2023-04-28T08:58:28.477Z,5.20
2023-04-28T09:00:55.268Z,7.22
2023-04-28T09:03:22.265Z,6.22
2023-04-28T09:05:49.292Z,4.25
2023-04-28T09:08:16.191Z,9.82
2023-04-28T09:10:42.907Z,7.00
2023-04-28T09:13:09.815Z,8.45
2023-04-28T09:15:41.044Z,3.72
2023-04-28T09:18:08.755Z,6.30
2023-04-28T09:20:36.675Z,5.75
2023-04-28T09:23:34.025Z,6.72
2023-04-28T09:26:06.540Z,5.00
2023-04-28T09:28:34.858Z,5.88
2023-04-28T09:31:01.865Z,6.18
2023-04-28T09:33:28.866Z,6.07
2023-04-28T09:35:55.933Z,7.05
2023-04-28T09:38:23.147Z,7.28
2023-04-28T09:43:36.188Z,5.25
2023-04-28T09:46:05.202Z,7.30
2023-04-28T09:48:34.282Z,5.07
2023-04-28T09:51:05.990Z,5.68
2023-04-28T09:53:33.525Z,5.10
2023-04-28T09:56:02.171Z,5.82
2023-04-28T09:58:30.203Z,6.22
2023-04-28T10:00:58.401Z,7.80
2023-04-28T10:03:29.627Z,6.47
2023-04-28T10:05:58.474Z,5.28
2023-04-28T10:08:27.272Z,6.65
2023-04-28T10:10:55.384Z,6.47
2023-04-28T10:13:23.349Z,8.98
2023-04-28T10:15:51.125Z,7.00
2023-04-28T10:18:18.462Z,7.78
2023-04-28T10:20:59.681Z,6.18
2023-04-28T10:23:32.549Z,5.13
2023-04-28T10:25:59.940Z,6.97
2023-04-28T10:28:27.467Z,7.07
2023-04-28T10:31:14.192Z,10.00
2023-04-28T10:33:42.043Z,9.43
2023-04-28T10:36:09.090Z,7.00
2023-04-28T10:39:01.873Z,7.45
2023-04-28T10:41:32.332Z,6.82
2023-04-28T10:43:58.950Z,6.38
2023-04-28T10:46:25.698Z,5.75
2023-04-28T10:48:54.179Z,5.60
2023-04-28T10:51:20.951Z,7.30
2023-04-28T10:53:51.090Z,6.57
2023-04-28T10:56:21.388Z,6.28
2023-04-28T10:58:50.811Z,7.32
2023-04-28T11:01:32.546Z,7.45
2023-04-28T11:04:01.331Z,101.68
2023-04-28T11:06:41.573Z,27.00
2023-04-28T11:09:20.404Z,12.60
2023-04-28T11:12:07.016Z,7.45
2023-04-28T11:14:35.637Z,8.43
2023-04-28T11:17:07.233Z,7.68
2023-04-28T11:19:35.245Z,6.93
2023-04-28T11:22:19.474Z,8.23
2023-04-28T11:27:40.176Z,7.75
2023-04-28T11:30:23.087Z,9.23
2023-04-28T11:32:50.613Z,8.13
2023-04-28T11:35:17.798Z,9.68
2023-04-28T11:37:44.859Z,7.80
2023-04-28T11:40:13.361Z,7.53
2023-04-28T11:42:49.730Z,10.48
2023-04-28T11:45:16.967Z,7.50
2023-04-28T11:47:46.295Z,6.45
2023-04-28T11:50:14.663Z,7.55
2023-04-28T11:52:53.608Z,7.75
2023-04-28T11:55:21.109Z,7.90
2023-04-28T11:57:48.168Z,7.30
2023-04-28T12:00:22.211Z,7.53
2023-04-28T12:02:49.733Z,9.93
2023-04-28T12:05:17.104Z,8.02
2023-04-28T12:07:45.855Z,9.77
2023-04-28T12:10:17.472Z,8.85
2023-04-28T12:12:52.004Z,11.15
2023-04-28T12:15:22.865Z,9.65
2023-04-28T12:17:51.308Z,8.90
2023-04-28T12:20:36.757Z,10.15
2023-04-28T12:23:04.014Z,8.93
2023-04-28T12:25:30.812Z,9.65
2023-04-28T12:28:08.517Z,12.60
2023-04-28T12:30:39.083Z,7.30
2023-04-28T12:33:06.234Z,7.43
2023-04-28T12:35:33.881Z,9.38
2023-04-28T12:38:00.923Z,8.10
2023-04-28T12:40:28.280Z,9.43
2023-04-28T12:42:55.426Z,7.32
2023-04-28T12:45:32.527Z,9.52
2023-04-28T12:47:59.568Z,8.15
2023-04-28T12:50:28.041Z,10.65
2023-04-28T12:52:56.417Z,7.95
2023-04-28T12:55:23.571Z,7.50
2023-04-28T12:57:50.200Z,8.00
2023-04-28T13:00:18.128Z,7.95
2023-04-28T13:02:45.679Z,7.90
2023-04-28T13:05:14.575Z,6.55
2023-04-28T13:07:41.682Z,10.05
2023-04-28T13:10:09.477Z,7.30
2023-04-28T13:12:36.589Z,7.63
2023-04-28T13:15:04.558Z,8.45
2023-04-28T13:17:32.457Z,8.88
2023-04-28T13:19:59.374Z,9.15
2023-04-28T13:22:26.312Z,7.97
2023-04-28T13:24:53.185Z,8.75
2023-04-28T13:27:20.201Z,11.63
2023-04-28T13:29:47.552Z,6.57
2023-04-28T13:32:14.521Z,7.63
2023-04-28T13:34:41.447Z,7.15
2023-04-28T13:37:08.492Z,8.18
2023-04-28T13:39:35.354Z,7.45
2023-04-28T13:42:02.623Z,9.02
2023-04-28T13:44:29.198Z,8.15
2023-04-28T13:46:56.691Z,9.23
2023-04-28T13:49:24.445Z,7.15
2023-04-28T13:51:52.103Z,8.40
2023-04-28T13:54:20.931Z,8.93
2023-04-28T13:56:48.249Z,9.32
2023-04-28T13:59:15.694Z,9.90
2023-04-28T14:01:42.553Z,9.57
2023-04-28T14:04:09.587Z,7.68
2023-04-28T14:06:37.139Z,9.27
2023-04-28T14:09:04.693Z,7.70
2023-04-28T14:11:31.279Z,10.27
2023-04-28T14:13:57.807Z,12.15
2023-04-28T14:16:26.435Z,7.35
2023-04-28T14:18:53.476Z,9.15
2023-04-28T14:21:20.082Z,8.40
2023-04-28T14:23:47.334Z,9.15
2023-04-28T14:26:13.951Z,7.95
2023-04-28T14:28:40.734Z,7.28
2023-04-28T14:31:08.618Z,9.80
2023-04-28T14:33:35.788Z,7.88
2023-04-28T14:36:02.850Z,6.72
2023-04-28T14:38:30.580Z,7.97
2023-04-28T14:40:57.607Z,7.15
2023-04-28T14:43:25.581Z,6.85
2023-04-28T14:45:53.284Z,8.35
2023-04-28T14:48:20.301Z,7.53
2023-04-28T14:50:47.587Z,10.13
2023-04-28T14:53:14.381Z,8.18
2023-04-28T14:55:40.989Z,6.47
2023-04-28T14:58:07.745Z,8.90
2023-04-28T15:00:35.234Z,7.95
2023-04-28T15:03:01.981Z,6.50
2023-04-28T15:05:28.732Z,7.53
2023-04-28T15:07:55.451Z,9.02
2023-04-28T15:10:22.099Z,7.90
2023-04-28T15:12:49.703Z,8.90
2023-04-28T15:15:16.779Z,6.15
2023-04-28T15:17:44.573Z,8.60
2023-04-28T15:20:12.118Z,5.75
2023-04-28T15:22:38.693Z,6.03
2023-04-28T15:25:05.954Z,10.15
2023-04-28T15:27:32.591Z,10.48
2023-04-28T15:29:59.322Z,8.60
2023-04-28T15:32:27.282Z,10.85
2023-04-28T15:34:55.061Z,10.13
2023-04-28T15:38:00.274Z,11.55
2023-04-28T15:40:26.978Z,13.75
2023-04-28T15:42:53.556Z,12.68
2023-04-28T15:45:22.290Z,12.90
2023-04-28T15:47:50.840Z,10.13
2023-04-28T15:50:19.799Z,15.20
2023-04-28T15:52:47.843Z,20.35
2023-04-28T15:55:16.811Z,14.90
2023-04-28T15:57:44.481Z,11.68
2023-04-28T16:00:13.268Z,11.82
2023-04-28T16:02:40.783Z,12.52
2023-04-28T16:05:08.738Z,12.02
2023-04-28T16:07:41.194Z,12.05
2023-04-28T16:10:09.541Z,12.77
2023-04-28T16:12:36.798Z,13.25
2023-04-28T16:15:04.491Z,14.07
2023-04-28T16:17:31.652Z,13.80
2023-04-28T16:19:58.961Z,12.75
2023-04-28T16:22:26.003Z,16.08
2023-04-28T16:24:58.490Z,14.32
2023-04-28T16:27:25.631Z,13.95
2023-04-28T16:29:52.434Z,13.75
2023-04-28T16:32:19.765Z,13.70
2023-04-28T16:34:47.813Z,12.15
2023-04-28T16:37:15.557Z,13.60
2023-04-28T16:39:42.812Z,13.07
2023-04-28T16:42:10.298Z,12.95
2023-04-28T16:44:37.312Z,16.77
2023-04-28T16:47:04.779Z,19.38
2023-04-28T16:49:31.721Z,16.48
2023-04-28T16:52:04.203Z,13.35
2023-04-28T16:54:32.490Z,14.00
2023-04-28T16:57:01.662Z,14.35
2023-04-28T16:59:33.547Z,14.75
2023-04-28T17:02:02.109Z,14.88
2023-04-28T17:04:29.678Z,15.25
2023-04-28T17:06:56.922Z,16.30
2023-04-28T17:09:24.079Z,15.63
2023-04-28T17:11:51.008Z,14.20
2023-04-28T17:14:18.583Z,14.48
2023-04-28T17:16:45.830Z,14.98
2023-04-28T17:19:12.970Z,15.00
2023-04-28T17:21:40.126Z,14.50
2023-04-28T17:24:07.001Z,15.82
2023-04-28T17:26:34.111Z,16.45
2023-04-28T17:29:02.461Z,16.38
2023-04-28T17:31:30.020Z,15.57
2023-04-28T17:33:58.698Z,14.60
2023-04-28T17:36:28.848Z,13.90
2023-04-28T17:38:56.123Z,13.93
2023-04-28T17:41:23.094Z,14.85
2023-04-28T17:43:53.924Z,13.75
2023-04-28T17:46:22.206Z,14.30
2023-04-28T17:48:49.826Z,13.18
2023-04-28T17:51:17.085Z,13.23
2023-04-28T17:53:46.280Z,14.07
2023-04-28T17:56:13.338Z,15.43
2023-04-28T17:58:40.469Z,15.10
2023-04-28T18:01:09.051Z,17.20
2023-04-28T18:03:38.265Z,13.95
2023-04-28T18:06:08.039Z,15.05
2023-04-28T18:08:37.073Z,17.20
2023-04-28T18:11:05.093Z,18.80
2023-04-28T18:13:33.548Z,18.88
2023-04-28T18:16:05.488Z,18.00
2023-04-28T18:18:34.860Z,18.63
2023-04-28T18:21:02.649Z,17.92
2023-04-28T18:23:30.803Z,20.13
2023-04-28T18:25:57.859Z,21.88
2023-04-28T18:28:24.940Z,20.77
2023-04-28T18:30:52.155Z,22.05
2023-04-28T18:33:22.130Z,22.75
2023-04-28T18:35:58.331Z,22.48
2023-04-28T18:38:28.428Z,21.55
2023-04-28T18:40:55.598Z,23.38
2023-04-28T18:43:23.766Z,22.27
2023-04-28T18:45:50.972Z,23.23
2023-04-28T18:48:20.327Z,21.35
2023-04-28T18:50:50.363Z,25.55
2023-04-28T18:53:17.802Z,25.38
2023-04-28T18:55:45.356Z,27.17
2023-04-28T18:58:14.065Z,27.17
2023-04-28T19:00:42.767Z,26.58
2023-04-28T19:03:14.009Z,26.30
2023-04-28T19:05:54.847Z,28.25
2023-04-28T19:08:22.002Z,27.25
2023-04-28T19:14:28.626Z,29.65
2023-04-28T19:16:56.256Z,30.33
2023-04-28T19:19:30.369Z,30.38
2023-04-28T19:21:57.136Z,33.80
2023-04-28T19:24:23.706Z,36.83
2023-04-28T19:26:50.339Z,32.42
2023-04-28T19:29:17.309Z,33.35
2023-04-28T19:31:44.430Z,35.53
2023-04-28T19:34:11.127Z,37.05
2023-04-28T19:36:37.669Z,37.40
2023-04-28T19:39:04.220Z,33.70
2023-04-28T19:41:30.813Z,32.88
2023-04-28T19:43:57.575Z,35.50
2023-04-28T19:46:24.770Z,36.30
2023-04-28T19:48:52.627Z,37.35
2023-04-28T19:51:19.507Z,33.38
2023-04-28T19:53:47.074Z,35.42
2023-04-28T19:56:13.715Z,38.65
2023-04-28T19:58:40.952Z,34.22
2023-04-28T20:01:07.686Z,33.80
2023-04-28T20:03:34.873Z,35.55
2023-04-28T20:06:01.784Z,35.33
2023-04-28T20:08:29.410Z,37.72
2023-04-28T20:10:56.428Z,36.58
2023-04-28T20:13:22.977Z,35.80
2023-04-28T20:15:49.580Z,34.20
2023-04-28T20:18:16.235Z,35.28
2023-04-28T20:20:43.626Z,32.95
2023-04-28T20:23:10.227Z,32.50
2023-04-28T20:25:37.201Z,32.08
2023-04-28T20:28:03.951Z,34.50
2023-04-28T20:30:30.513Z,34.55
2023-04-28T20:32:57.192Z,35.55
2023-04-28T20:35:23.866Z,35.42
2023-04-28T20:37:50.505Z,35.42
2023-04-28T20:40:17.391Z,35.05
2023-04-28T20:42:43.945Z,36.50
2023-04-28T20:45:11.310Z,35.55
2023-04-28T20:47:37.937Z,37.78
2023-04-28T20:50:06.370Z,41.08
2023-04-28T20:52:32.959Z,38.90
2023-04-28T20:55:00.262Z,38.53
2023-04-28T20:57:26.785Z,36.50
2023-04-28T20:59:53.353Z,36.15
2023-04-28T21:02:20.028Z,38.63
2023-04-28T21:04:46.746Z,38.38
2023-04-28T21:07:13.492Z,37.45
2023-04-28T21:09:41.983Z,39.38
2023-04-28T21:12:08.578Z,39.70
2023-04-28T21:14:36.481Z,37.95
2023-04-28T21:17:03.700Z,39.00
2023-04-28T21:19:32.111Z,41.67
2023-04-28T21:21:59.162Z,37.15
2023-04-28T21:24:25.822Z,38.40
2023-04-28T21:26:52.380Z,37.22
2023-04-28T21:29:19.174Z,38.50
2023-04-28T21:31:45.844Z,40.05
2023-04-28T21:34:12.651Z,38.53
2023-04-28T21:36:39.875Z,39.55
2023-04-28T21:39:07.553Z,36.53
2023-04-28T21:41:34.723Z,41.00
2023-04-28T21:44:02.009Z,40.05
2023-04-28T21:46:28.712Z,40.75
2023-04-28T21:48:55.483Z,44.20
2023-04-28T21:51:22.122Z,46.80
2023-04-28T21:53:48.836Z,43.38
2023-04-28T21:56:17.082Z,54.92
2023-04-28T21:58:43.782Z,56.65
2023-04-28T22:01:15.563Z,56.83
2023-04-28T22:03:42.495Z,60.70
2023-04-28T22:06:09.496Z,59.72
2023-04-28T22:08:36.517Z,60.63
2023-04-28T22:11:04.614Z,61.38
2023-04-28T22:13:31.244Z,61.08
2023-04-28T22:16:02.129Z,61.25
2023-04-28T22:18:30.273Z,61.03
2023-04-28T22:20:57.185Z,66.00
2023-04-28T22:23:24.038Z,64.35
2023-04-28T22:25:50.768Z,66.50
2023-04-28T22:28:17.922Z,70.47
2023-04-28T22:30:46.712Z,64.95
2023-04-28T22:33:13.537Z,66.15
2023-04-28T22:35:40.633Z,64.85
2023-04-28T22:38:07.957Z,70.53
2023-04-28T22:40:34.634Z,67.95
2023-04-28T22:43:01.340Z,66.93
2023-04-28T22:45:28.702Z,65.97
2023-04-28T22:47:56.351Z,65.43
2023-04-28T22:50:25.268Z,61.90
2023-04-28T22:52:52.003Z,65.05
2023-04-28T22:55:19.432Z,57.90
2023-04-28T22:57:46.157Z,64.28
2023-04-28T23:00:16.135Z,63.03
2023-04-28T23:02:43.001Z,66.90
2023-04-28T23:05:09.981Z,65.32
2023-04-28T23:07:36.616Z,63.08
2023-04-28T23:10:05.206Z,62.88
2023-04-28T23:12:32.034Z,62.85
2023-04-28T23:14:58.689Z,65.60
2023-04-28T23:17:25.592Z,63.10
2023-04-28T23:19:52.530Z,57.95
2023-04-28T23:22:19.418Z,61.30
2023-04-28T23:24:46.104Z,61.63
2023-04-28T23:27:12.823Z,63.30
2023-04-28T23:29:39.401Z,59.45
2023-04-28T23:32:06.108Z,61.08
2023-04-28T23:34:32.806Z,58.63
2023-04-28T23:36:59.651Z,58.15
2023-04-28T23:39:27.047Z,56.13
2023-04-28T23:41:54.060Z,54.38
2023-04-28T23:44:20.752Z,54.92
2023-04-28T23:46:49.148Z,53.17
2023-04-28T23:49:16.456Z,51.83
2023-04-28T23:51:43.288Z,54.17
2023-04-28T23:54:09.985Z,53.50
2023-04-28T23:56:36.726Z,50.75
2023-04-28T23:59:04.244Z,51.42
